createdAt,value
2019-01-30T00:00:39.329Z,8.59
2019-01-30T00:03:45.343Z,8.67
2019-01-30T00:06:51.339Z,8.44
2019-01-30T00:09:57.198Z,8.65
2019-01-30T00:13:03.073Z,8.86
2019-01-30T00:16:09.055Z,8.88
2019-01-30T00:19:15.097Z,8.66
2019-01-30T00:22:21.056Z,8.61
2019-01-30T00:25:27.024Z,8.48
2019-01-30T00:28:32.884Z,8.45
2019-01-30T00:31:38.977Z,8.69
2019-01-30T00:34:44.820Z,8.26
2019-01-30T00:37:50.672Z,8.47
2019-01-30T00:40:56.697Z,8.57
2019-01-30T00:44:02.616Z,8.63
2019-01-30T00:47:15.837Z,8.74
2019-01-30T00:50:17.299Z,8.89
2019-01-30T00:53:23.253Z,8.76
2019-01-30T00:56:29.125Z,8.77
2019-01-30T00:59:35.059Z,8.45
2019-01-30T01:02:41.031Z,8.61
2019-01-30T01:05:47.093Z,8.29
2019-01-30T01:08:54.096Z,8.23
2019-01-30T01:11:59.943Z,8.19
2019-01-30T01:15:08.099Z,8.54
2019-01-30T01:18:14.054Z,8.36
2019-01-30T01:21:20.006Z,8.00
2019-01-30T01:24:25.822Z,8.36
2019-01-30T01:27:31.782Z,8.32
2019-01-30T01:30:37.776Z,8.76
2019-01-30T01:33:43.719Z,8.80
2019-01-30T01:36:49.563Z,9.02
2019-01-30T01:39:55.423Z,9.08
2019-01-30T01:43:01.314Z,9.04
2019-01-30T01:46:07.331Z,8.96
2019-01-30T01:49:13.210Z,9.13
2019-01-30T01:52:19.231Z,9.02
2019-01-30T01:55:25.078Z,8.97
2019-01-30T01:58:31.079Z,8.87
2019-01-30T02:01:36.944Z,8.70
2019-01-30T02:04:42.802Z,8.80
2019-01-30T02:07:48.806Z,8.67
2019-01-30T02:10:54.674Z,8.53
2019-01-30T02:14:00.538Z,8.61
2019-01-30T02:17:06.489Z,8.04
2019-01-30T02:20:18.032Z,7.93
2019-01-30T02:23:23.981Z,8.07
2019-01-30T02:26:29.809Z,7.97
2019-01-30T02:29:35.689Z,7.70
2019-01-30T02:32:41.519Z,7.07
2019-01-30T02:35:47.498Z,7.05
2019-01-30T02:38:53.545Z,6.84
2019-01-30T02:41:59.906Z,7.31
2019-01-30T02:45:06.712Z,7.79
2019-01-30T02:48:12.581Z,7.95
2019-01-30T02:51:18.545Z,8.10
2019-01-30T02:54:24.420Z,8.09
2019-01-30T02:57:30.285Z,8.34
2019-01-30T03:00:37.985Z,8.14
2019-01-30T03:03:43.878Z,8.32
2019-01-30T03:06:49.843Z,8.54
2019-01-30T03:09:55.702Z,8.52
2019-01-30T03:13:01.589Z,8.23
2019-01-30T03:16:07.438Z,8.50
2019-01-30T03:19:13.338Z,8.26
2019-01-30T03:22:19.200Z,8.03
2019-01-30T03:25:25.937Z,8.17
2019-01-30T03:28:31.800Z,8.42
2019-01-30T03:31:37.709Z,8.53
2019-01-30T03:34:43.611Z,8.68
2019-01-30T03:37:49.811Z,8.53
2019-01-30T03:40:55.831Z,8.79
2019-01-30T03:44:01.717Z,8.91
2019-01-30T03:47:07.680Z,8.84
2019-01-30T03:50:14.074Z,9.00
2019-01-30T03:53:20.045Z,8.93
2019-01-30T03:56:25.894Z,9.03
2019-01-30T03:59:31.725Z,9.17
2019-01-30T04:02:37.584Z,9.17
2019-01-30T04:05:43.418Z,9.17
2019-01-30T04:08:49.394Z,9.10
2019-01-30T04:11:55.263Z,8.98
2019-01-30T04:15:01.235Z,9.08
2019-01-30T04:18:07.084Z,9.13
2019-01-30T04:21:12.920Z,9.07
2019-01-30T04:24:18.780Z,9.11
2019-01-30T04:27:24.644Z,8.93
2019-01-30T04:30:30.519Z,8.90
2019-01-30T04:33:36.458Z,9.04
2019-01-30T04:36:42.310Z,9.11
2019-01-30T04:39:48.196Z,9.00
2019-01-30T04:42:54.046Z,9.25
2019-01-30T04:46:00.108Z,9.25
2019-01-30T04:49:06.065Z,9.24
2019-01-30T04:52:11.926Z,9.26
2019-01-30T04:55:18.310Z,9.07
2019-01-30T04:58:24.159Z,8.92
2019-01-30T05:01:29.995Z,9.17
2019-01-30T05:04:35.930Z,9.30
2019-01-30T05:07:42.044Z,8.93
2019-01-30T05:10:47.982Z,9.00
2019-01-30T05:13:53.947Z,9.27
2019-01-30T05:16:59.965Z,9.00
2019-01-30T05:20:09.584Z,8.74
2019-01-30T05:23:14.387Z,8.62
2019-01-30T05:26:20.230Z,8.94
2019-01-30T05:29:26.177Z,8.98
2019-01-30T05:32:32.021Z,8.95
2019-01-30T05:35:38.240Z,8.98
2019-01-30T05:38:44.075Z,9.30
2019-01-30T05:41:49.925Z,9.30
2019-01-30T05:44:55.877Z,8.92
2019-01-30T05:48:01.737Z,9.13
2019-01-30T05:51:07.704Z,9.36
2019-01-30T05:54:13.541Z,9.43
2019-01-30T05:57:19.468Z,8.88
2019-01-30T06:00:34.428Z,9.19
2019-01-30T06:03:40.282Z,9.29
2019-01-30T06:06:46.322Z,9.06
2019-01-30T06:09:52.271Z,9.34
2019-01-30T06:12:58.221Z,9.45
2019-01-30T06:16:04.204Z,9.62
2019-01-30T06:19:10.302Z,9.76
2019-01-30T06:22:16.221Z,9.76
2019-01-30T06:25:22.334Z,9.63
2019-01-30T06:28:29.373Z,9.59
2019-01-30T06:31:35.542Z,9.73
2019-01-30T06:34:41.356Z,9.88
2019-01-30T06:37:47.472Z,9.72
2019-01-30T06:40:53.424Z,9.80
2019-01-30T06:44:00.402Z,9.82
2019-01-30T06:47:06.541Z,9.93
2019-01-30T06:50:13.161Z,9.81
2019-01-30T06:53:19.017Z,9.73
2019-01-30T06:56:24.910Z,9.74
2019-01-30T06:59:30.738Z,9.83
2019-01-30T07:02:36.718Z,10.08
2019-01-30T07:05:42.769Z,10.37
2019-01-30T07:08:48.715Z,9.98
2019-01-30T07:11:54.612Z,10.32
2019-01-30T07:15:00.563Z,10.58
2019-01-30T07:18:07.517Z,10.76
2019-01-30T07:21:13.519Z,10.98
2019-01-30T07:24:19.427Z,10.79
2019-01-30T07:27:25.421Z,10.62
2019-01-30T07:30:36.339Z,10.85
2019-01-30T07:33:42.145Z,10.96
2019-01-30T07:36:47.987Z,10.99
2019-01-30T07:39:54.057Z,10.89
2019-01-30T07:42:59.924Z,10.87
2019-01-30T07:46:06.241Z,10.78
2019-01-30T07:49:12.096Z,10.51
2019-01-30T07:52:18.126Z,10.55
2019-01-30T07:55:24.197Z,10.57
2019-01-30T07:58:30.118Z,10.63
2019-01-30T08:01:36.094Z,10.62
2019-01-30T08:04:42.056Z,10.69
2019-01-30T08:07:49.041Z,10.55
2019-01-30T08:10:54.889Z,10.60
2019-01-30T08:14:01.925Z,10.62
2019-01-30T08:17:08.182Z,10.25
2019-01-30T08:20:17.070Z,10.57
2019-01-30T08:23:23.144Z,10.65
2019-01-30T08:26:29.205Z,10.64
2019-01-30T08:29:35.316Z,9.99
2019-01-30T08:32:41.343Z,10.53
2019-01-30T08:35:47.277Z,10.82
2019-01-30T08:38:54.116Z,10.99
2019-01-30T08:42:00.208Z,10.87
2019-01-30T08:45:07.361Z,11.07
2019-01-30T08:48:13.340Z,10.85
2019-01-30T08:51:19.212Z,11.00
2019-01-30T08:54:25.216Z,11.26
2019-01-30T08:57:31.282Z,11.40
2019-01-30T09:00:37.206Z,11.60
2019-01-30T09:03:43.116Z,11.73
2019-01-30T09:06:49.014Z,11.84
2019-01-30T09:09:54.981Z,11.76
2019-01-30T09:13:00.891Z,11.04
2019-01-30T09:16:07.105Z,11.33
2019-01-30T09:19:13.092Z,11.20
2019-01-30T09:22:18.974Z,11.23
2019-01-30T09:25:26.845Z,11.41
2019-01-30T09:28:32.903Z,11.61
2019-01-30T09:31:38.752Z,11.84
2019-01-30T09:34:44.613Z,11.90
2019-01-30T09:37:50.523Z,12.06
2019-01-30T09:40:56.582Z,12.05
2019-01-30T09:44:02.471Z,11.56
2019-01-30T09:47:08.364Z,11.53
2019-01-30T09:50:17.090Z,11.89
2019-01-30T09:53:23.163Z,11.91
2019-01-30T09:56:29.057Z,11.64
2019-01-30T09:59:35.050Z,12.24
2019-01-30T10:02:41.079Z,12.56
2019-01-30T10:05:47.171Z,12.45
2019-01-30T10:08:53.047Z,12.48
2019-01-30T10:11:58.955Z,12.55
2019-01-30T10:15:06.387Z,12.43
2019-01-30T10:18:14.038Z,12.66
2019-01-30T10:21:20.065Z,12.76
2019-01-30T10:24:28.928Z,12.39
2019-01-30T10:27:34.184Z,11.89
2019-01-30T10:30:42.061Z,11.91
2019-01-30T10:33:47.908Z,12.02
2019-01-30T10:36:53.878Z,11.87
2019-01-30T10:40:00.317Z,11.86
2019-01-30T10:43:06.867Z,12.24
2019-01-30T10:46:12.748Z,12.31
2019-01-30T10:49:18.750Z,11.93
2019-01-30T10:52:24.711Z,11.92
2019-01-30T10:55:32.036Z,11.82
2019-01-30T10:58:38.057Z,12.12
2019-01-30T11:01:44.226Z,12.21
2019-01-30T11:04:51.088Z,12.04
2019-01-30T11:07:57.229Z,12.02
2019-01-30T11:11:08.066Z,12.40
2019-01-30T11:14:10.831Z,12.48
2019-01-30T11:17:16.794Z,12.85
2019-01-30T11:20:23.215Z,13.05
2019-01-30T11:23:29.352Z,13.36
2019-01-30T11:26:36.545Z,13.80
2019-01-30T11:29:42.851Z,13.74
2019-01-30T11:32:48.716Z,14.25
2019-01-30T11:35:54.706Z,14.25
2019-01-30T11:39:00.598Z,14.29
2019-01-30T11:42:08.165Z,14.49
2019-01-30T11:45:17.573Z,14.62
2019-01-30T11:48:23.524Z,14.81
2019-01-30T11:51:29.490Z,15.38
2019-01-30T11:54:38.953Z,15.24
2019-01-30T11:57:43.195Z,15.35
2019-01-30T12:01:00.237Z,15.41
2019-01-30T12:04:06.343Z,15.50
2019-01-30T12:07:12.359Z,15.24
2019-01-30T12:10:18.353Z,14.86
2019-01-30T12:13:24.477Z,14.63
2019-01-30T12:16:30.530Z,14.72
2019-01-30T12:19:36.395Z,14.79
2019-01-30T12:22:42.511Z,14.93
2019-01-30T12:25:48.611Z,15.45
2019-01-30T12:28:54.466Z,15.31
2019-01-30T12:32:00.340Z,15.56
2019-01-30T12:35:06.717Z,15.28
2019-01-30T12:38:13.790Z,15.28
2019-01-30T12:41:19.798Z,15.20
2019-01-30T12:44:27.161Z,15.12
2019-01-30T12:47:33.066Z,14.61
2019-01-30T12:50:39.243Z,14.66
2019-01-30T12:53:46.769Z,14.77
2019-01-30T12:56:52.665Z,14.90
2019-01-30T12:59:58.776Z,14.70
2019-01-30T13:03:04.985Z,14.56
2019-01-30T13:06:10.852Z,14.74
2019-01-30T13:09:16.754Z,14.71
2019-01-30T13:12:22.714Z,14.65
2019-01-30T13:15:29.096Z,14.20
2019-01-30T13:18:36.067Z,14.13
2019-01-30T13:21:41.935Z,14.03
2019-01-30T13:24:47.874Z,13.99
2019-01-30T13:27:53.951Z,13.88
2019-01-30T13:30:59.884Z,13.71
2019-01-30T13:34:06.013Z,13.84
2019-01-30T13:37:11.902Z,13.84
2019-01-30T13:40:24.136Z,13.93
2019-01-30T13:43:30.144Z,13.99
2019-01-30T13:46:36.245Z,13.69
2019-01-30T13:49:42.122Z,13.71
2019-01-30T13:52:48.184Z,13.86
2019-01-30T13:55:54.196Z,13.83
2019-01-30T13:59:00.208Z,13.85
2019-01-30T14:02:06.295Z,13.61
2019-01-30T14:05:12.445Z,13.59
2019-01-30T14:08:18.436Z,13.56
2019-01-30T14:11:24.411Z,13.20
2019-01-30T14:14:30.421Z,13.32
2019-01-30T14:17:36.494Z,13.37
2019-01-30T14:20:42.485Z,13.47
2019-01-30T14:23:48.498Z,13.15
2019-01-30T14:26:54.530Z,13.25
2019-01-30T14:30:00.383Z,13.25
2019-01-30T14:33:06.605Z,13.11
2019-01-30T14:36:12.579Z,13.12
2019-01-30T14:39:18.545Z,13.21
2019-01-30T14:42:24.577Z,13.27
2019-01-30T14:45:30.597Z,13.25
2019-01-30T14:48:36.563Z,13.11
2019-01-30T14:51:42.427Z,13.06
2019-01-30T14:54:50.409Z,12.96
2019-01-30T14:57:56.655Z,12.95
2019-01-30T15:01:02.701Z,12.92
2019-01-30T15:04:08.577Z,12.81
2019-01-30T15:07:14.603Z,12.87
2019-01-30T15:10:22.072Z,12.87
2019-01-30T15:13:28.090Z,12.87
2019-01-30T15:16:33.953Z,12.82
2019-01-30T15:19:39.886Z,12.88
2019-01-30T15:22:45.836Z,12.69
2019-01-30T15:25:52.920Z,12.58
2019-01-30T15:28:58.868Z,12.20
2019-01-30T15:32:05.156Z,12.53
2019-01-30T15:35:11.212Z,12.44
2019-01-30T15:38:20.828Z,12.59
2019-01-30T15:41:26.515Z,12.26
2019-01-30T15:44:32.377Z,12.39
2019-01-30T15:47:39.348Z,12.14
2019-01-30T15:50:45.549Z,11.87
2019-01-30T15:53:51.424Z,11.94
2019-01-30T15:56:57.313Z,11.75
2019-01-30T16:00:03.206Z,11.90
2019-01-30T16:03:09.306Z,11.85
2019-01-30T16:06:15.194Z,11.80
2019-01-30T16:09:21.070Z,11.63
2019-01-30T16:12:26.938Z,11.53
2019-01-30T16:15:36.083Z,11.49
2019-01-30T16:18:42.072Z,11.41
2019-01-30T16:21:48.016Z,11.23
2019-01-30T16:24:53.950Z,11.40
2019-01-30T16:27:59.793Z,11.22
2019-01-30T16:31:05.887Z,11.32
2019-01-30T16:34:11.859Z,11.52
2019-01-30T16:37:17.820Z,11.65
2019-01-30T16:40:23.925Z,11.52
2019-01-30T16:43:29.935Z,11.33
2019-01-30T16:46:36.058Z,11.32
2019-01-30T16:49:41.905Z,11.55
2019-01-30T16:52:47.995Z,11.52
2019-01-30T16:55:53.937Z,11.70
2019-01-30T16:59:00.019Z,11.68
2019-01-30T17:02:06.307Z,11.88
2019-01-30T17:05:14.034Z,11.97
2019-01-30T17:08:19.852Z,12.10
2019-01-30T17:11:25.728Z,11.98
2019-01-30T17:14:34.591Z,11.90
2019-01-30T17:17:40.475Z,11.90
2019-01-30T17:20:46.642Z,11.64
2019-01-30T17:23:52.533Z,11.62
2019-01-30T17:27:01.827Z,11.59
2019-01-30T17:30:11.754Z,11.63
2019-01-30T17:33:18.634Z,11.75
2019-01-30T17:36:26.017Z,11.50
2019-01-30T17:39:31.885Z,11.63
2019-01-30T17:42:37.880Z,11.70
2019-01-30T17:45:43.852Z,11.74
2019-01-30T17:48:49.971Z,11.69
2019-01-30T17:51:55.817Z,11.49
2019-01-30T17:55:04.503Z,11.67
2019-01-30T17:58:11.884Z,11.76
2019-01-30T18:01:18.166Z,11.71
2019-01-30T18:04:24.156Z,11.52
2019-01-30T18:07:30.307Z,11.72
2019-01-30T18:10:36.237Z,11.78
2019-01-30T18:13:45.070Z,11.73
2019-01-30T18:16:50.059Z,11.73
2019-01-30T18:19:55.940Z,11.73
2019-01-30T18:23:02.041Z,11.77
2019-01-30T18:26:08.164Z,11.75
2019-01-30T18:29:14.040Z,11.75
2019-01-30T18:32:19.934Z,11.72
2019-01-30T18:35:26.006Z,11.54
2019-01-30T18:38:32.051Z,11.65
2019-01-30T18:41:38.023Z,11.67
2019-01-30T18:44:44.056Z,11.76
2019-01-30T18:47:50.134Z,11.76
2019-01-30T18:50:56.916Z,11.78
2019-01-30T18:54:04.093Z,11.78
2019-01-30T18:57:10.063Z,11.77
2019-01-30T19:00:27.666Z,11.57
2019-01-30T19:03:33.520Z,11.50
2019-01-30T19:06:39.397Z,11.58
2019-01-30T19:09:45.452Z,11.73
2019-01-30T19:12:51.564Z,11.74
2019-01-30T19:15:57.518Z,11.46
2019-01-30T19:19:03.522Z,11.60
2019-01-30T19:22:10.324Z,11.67
2019-01-30T19:25:16.584Z,11.59
2019-01-30T19:28:22.521Z,11.72
2019-01-30T19:31:28.419Z,11.75
2019-01-30T19:34:34.261Z,11.70
2019-01-30T19:37:40.323Z,11.67
2019-01-30T19:40:46.174Z,11.69
2019-01-30T19:43:52.041Z,11.29
2019-01-30T19:46:58.091Z,11.52
2019-01-30T19:50:04.344Z,11.60
2019-01-30T19:53:10.669Z,11.61
2019-01-30T19:56:16.627Z,11.73
2019-01-30T19:59:22.497Z,11.57
2019-01-30T20:02:28.360Z,11.69
2019-01-30T20:05:34.263Z,11.73
2019-01-30T20:08:40.328Z,11.67
2019-01-30T20:11:46.256Z,11.35
2019-01-30T20:14:52.317Z,11.44
2019-01-30T20:17:58.323Z,11.57
2019-01-30T20:21:04.293Z,11.52
2019-01-30T20:24:10.178Z,11.52
2019-01-30T20:27:16.033Z,11.49
2019-01-30T20:30:22.925Z,11.56
2019-01-30T20:33:28.923Z,11.52
2019-01-30T20:36:34.891Z,11.53
2019-01-30T20:39:40.844Z,11.55
2019-01-30T20:42:46.970Z,11.53
2019-01-30T20:45:52.941Z,11.44
2019-01-30T20:48:58.874Z,11.42
2019-01-30T20:52:04.853Z,11.30
2019-01-30T20:55:11.253Z,11.27
2019-01-30T20:58:17.312Z,11.32
2019-01-30T21:01:23.273Z,11.32
2019-01-30T21:04:29.115Z,11.29
2019-01-30T21:07:37.239Z,11.26
2019-01-30T21:10:43.347Z,11.45
2019-01-30T21:13:49.238Z,11.56
2019-01-30T21:16:55.241Z,11.61
2019-01-30T21:20:01.310Z,11.60
2019-01-30T21:23:07.827Z,11.39
2019-01-30T21:26:13.958Z,11.56
2019-01-30T21:29:19.822Z,11.66
2019-01-30T21:32:25.697Z,11.50
2019-01-30T21:35:31.770Z,11.50
2019-01-30T21:38:37.613Z,11.50
2019-01-30T21:41:43.500Z,11.48
2019-01-30T21:44:49.404Z,11.40
2019-01-30T21:47:55.455Z,11.44
2019-01-30T21:51:01.421Z,11.51
2019-01-30T21:54:08.643Z,11.48
2019-01-30T21:57:14.575Z,11.39
2019-01-30T22:00:22.596Z,11.48
2019-01-30T22:03:28.534Z,11.39
2019-01-30T22:06:34.402Z,11.40
2019-01-30T22:09:40.259Z,11.30
2019-01-30T22:12:46.127Z,11.30
2019-01-30T22:15:52.071Z,11.34
2019-01-30T22:18:58.039Z,11.32
2019-01-30T22:22:04.035Z,11.20
2019-01-30T22:25:19.928Z,11.35
2019-01-30T22:28:19.250Z,11.37
2019-01-30T22:31:25.111Z,10.36
2019-01-30T22:34:30.995Z,10.54
2019-01-30T22:37:36.865Z,10.72
2019-01-30T22:40:42.814Z,11.01
2019-01-30T22:43:48.703Z,11.18
2019-01-30T22:46:54.585Z,11.09
2019-01-30T22:50:00.494Z,11.09
2019-01-30T22:53:06.667Z,11.20
2019-01-30T22:56:12.684Z,11.12
2019-01-30T22:59:18.551Z,11.20
2019-01-30T23:02:25.094Z,11.06
2019-01-30T23:06:03.080Z,11.11
2019-01-30T23:09:43.925Z,11.22
2019-01-30T23:13:20.397Z,11.30
2019-01-30T23:17:05.933Z,11.22
2019-01-30T23:20:18.362Z,11.21
2019-01-30T23:23:55.878Z,11.24
2019-01-30T23:27:10.518Z,11.23
2019-01-30T23:30:42.110Z,11.23
2019-01-30T23:34:30.290Z,11.12
2019-01-30T23:38:41.236Z,11.03
2019-01-30T23:42:36.551Z,10.61
2019-01-30T23:45:54.051Z,10.59
2019-01-30T23:49:41.116Z,10.75
2019-01-30T23:53:24.557Z,10.78
2019-01-30T23:57:09.956Z,10.77
